sensor_id;sensor_type;location;lat;lon;timestamp;P1;durP1;ratioP1;P2;durP2;ratioP2
12024;SDS011;6073;53.230;10.444;2022-07-12T00:01:54;2.90;;;2.45;;
12024;SDS011;6073;53.230;10.444;2022-07-12T00:04:19;4.28;;;2.40;;
12024;SDS011;6073;53.230;10.444;2022-07-12T00:06:45;3.55;;;2.83;;
12024;SDS011;6073;53.230;10.444;2022-07-12T00:09:11;2.72;;;2.30;;
12024;SDS011;6073;53.230;10.444;2022-07-12T00:11:37;3.17;;;2.55;;
12024;SDS011;6073;53.230;10.444;2022-07-12T00:14:03;2.67;;;2.30;;
12024;SDS011;6073;53.230;10.444;2022-07-12T00:16:29;2.55;;;2.35;;
12024;SDS011;6073;53.230;10.444;2022-07-12T00:18:55;2.58;;;2.38;;
12024;SDS011;6073;53.230;10.444;2022-07-12T00:21:21;4.15;;;2.50;;
12024;SDS011;6073;53.230;10.444;2022-07-12T00:23:46;2.70;;;2.50;;
12024;SDS011;6073;53.230;10.444;2022-07-12T00:26:12;2.28;;;2.08;;
12024;SDS011;6073;53.230;10.444;2022-07-12T00:28:37;2.50;;;2.30;;
12024;SDS011;6073;53.230;10.444;2022-07-12T00:31:03;2.30;;;2.10;;
12024;SDS011;6073;53.230;10.444;2022-07-12T00:33:29;2.45;;;2.25;;
12024;SDS011;6073;53.230;10.444;2022-07-12T00:35:55;2.75;;;2.22;;
12024;SDS011;6073;53.230;10.444;2022-07-12T00:38:20;2.47;;;2.28;;
12024;SDS011;6073;53.230;10.444;2022-07-12T00:40:46;2.42;;;2.22;;
12024;SDS011;6073;53.230;10.444;2022-07-12T00:43:12;2.40;;;2.20;;
12024;SDS011;6073;53.230;10.444;2022-07-12T00:45:37;3.97;;;2.78;;
12024;SDS011;6073;53.230;10.444;2022-07-12T00:48:03;3.55;;;2.60;;
12024;SDS011;6073;53.230;10.444;2022-07-12T00:50:29;3.00;;;2.55;;
12024;SDS011;6073;53.230;10.444;2022-07-12T00:52:55;2.90;;;2.60;;
12024;SDS011;6073;53.230;10.444;2022-07-12T00:55:21;2.30;;;2.10;;
12024;SDS011;6073;53.230;10.444;2022-07-12T00:57:48;3.17;;;2.42;;
12024;SDS011;6073;53.230;10.444;2022-07-12T01:00:15;2.55;;;2.35;;
12024;SDS011;6073;53.230;10.444;2022-07-12T01:02:46;2.53;;;2.20;;
12024;SDS011;6073;53.230;10.444;2022-07-12T01:05:12;3.25;;;2.20;;
12024;SDS011;6073;53.230;10.444;2022-07-12T01:07:38;2.63;;;2.20;;
12024;SDS011;6073;53.230;10.444;2022-07-12T01:10:04;2.70;;;2.50;;
12024;SDS011;6073;53.230;10.444;2022-07-12T01:12:31;2.83;;;2.47;;
12024;SDS011;6073;53.230;10.444;2022-07-12T01:14:57;2.67;;;2.47;;
12024;SDS011;6073;53.230;10.444;2022-07-12T01:17:25;2.75;;;2.42;;
12024;SDS011;6073;53.230;10.444;2022-07-12T01:19:52;3.17;;;2.47;;
12024;SDS011;6073;53.230;10.444;2022-07-12T01:22:20;2.92;;;2.53;;
12024;SDS011;6073;53.230;10.444;2022-07-12T01:24:51;4.72;;;2.40;;
12024;SDS011;6073;53.230;10.444;2022-07-12T01:27:17;2.40;;;2.20;;
12024;SDS011;6073;53.230;10.444;2022-07-12T01:29:42;2.97;;;2.47;;
12024;SDS011;6073;53.230;10.444;2022-07-12T01:32:08;2.83;;;2.30;;
12024;SDS011;6073;53.230;10.444;2022-07-12T01:34:55;2.72;;;2.30;;
12024;SDS011;6073;53.230;10.444;2022-07-12T01:37:28;2.47;;;2.28;;
12024;SDS011;6073;53.230;10.444;2022-07-12T01:39:56;3.00;;;2.70;;
12024;SDS011;6073;53.230;10.444;2022-07-12T01:42:24;3.92;;;2.53;;
12024;SDS011;6073;53.230;10.444;2022-07-12T01:44:51;3.08;;;2.78;;
12024;SDS011;6073;53.230;10.444;2022-07-12T01:47:18;2.80;;;2.35;;
12024;SDS011;6073;53.230;10.444;2022-07-12T01:49:45;2.80;;;2.60;;
12024;SDS011;6073;53.230;10.444;2022-07-12T01:52:11;2.67;;;2.45;;
12024;SDS011;6073;53.230;10.444;2022-07-12T01:54:37;2.50;;;2.30;;
12024;SDS011;6073;53.230;10.444;2022-07-12T01:57:03;2.83;;;2.60;;
12024;SDS011;6073;53.230;10.444;2022-07-12T01:59:29;2.80;;;2.50;;
12024;SDS011;6073;53.230;10.444;2022-07-12T02:01:56;3.40;;;2.45;;
12024;SDS011;6073;53.230;10.444;2022-07-12T02:04:21;2.67;;;2.47;;
12024;SDS011;6073;53.230;10.444;2022-07-12T02:06:47;3.97;;;2.53;;
12024;SDS011;6073;53.230;10.444;2022-07-12T02:09:14;2.97;;;2.63;;
12024;SDS011;6073;53.230;10.444;2022-07-12T02:11:40;3.95;;;2.42;;
12024;SDS011;6073;53.230;10.444;2022-07-12T02:14:07;3.50;;;3.00;;
12024;SDS011;6073;53.230;10.444;2022-07-12T02:16:32;2.70;;;2.50;;
12024;SDS011;6073;53.230;10.444;2022-07-12T02:18:58;2.60;;;2.40;;
12024;SDS011;6073;53.230;10.444;2022-07-12T02:21:24;3.30;;;3.00;;
12024;SDS011;6073;53.230;10.444;2022-07-12T02:23:50;2.42;;;2.20;;
12024;SDS011;6073;53.230;10.444;2022-07-12T02:26:16;2.83;;;2.55;;
12024;SDS011;6073;53.230;10.444;2022-07-12T02:28:42;3.13;;;2.75;;
12024;SDS011;6073;53.230;10.444;2022-07-12T02:31:08;2.70;;;2.40;;
12024;SDS011;6073;53.230;10.444;2022-07-12T02:33:33;4.20;;;3.40;;
12024;SDS011;6073;53.230;10.444;2022-07-12T02:35:59;3.50;;;2.80;;
12024;SDS011;6073;53.230;10.444;2022-07-12T02:38:25;2.90;;;2.70;;
12024;SDS011;6073;53.230;10.444;2022-07-12T02:40:50;3.25;;;2.75;;
12024;SDS011;6073;53.230;10.444;2022-07-12T02:43:19;3.42;;;2.83;;
12024;SDS011;6073;53.230;10.444;2022-07-12T02:45:49;3.42;;;2.72;;
12024;SDS011;6073;53.230;10.444;2022-07-12T02:48:15;2.80;;;2.50;;
12024;SDS011;6073;53.230;10.444;2022-07-12T02:50:41;2.78;;;2.50;;
12024;SDS011;6073;53.230;10.444;2022-07-12T02:53:08;3.35;;;2.55;;
12024;SDS011;6073;53.230;10.444;2022-07-12T02:55:35;3.00;;;2.63;;
12024;SDS011;6073;53.230;10.444;2022-07-12T02:58:01;3.25;;;2.95;;
12024;SDS011;6073;53.230;10.444;2022-07-12T03:00:27;3.15;;;2.70;;
12024;SDS011;6073;53.230;10.444;2022-07-12T03:02:54;2.90;;;2.60;;
12024;SDS011;6073;53.230;10.444;2022-07-12T03:05:19;3.00;;;2.70;;
12024;SDS011;6073;53.230;10.444;2022-07-12T03:07:45;3.55;;;3.25;;
12024;SDS011;6073;53.230;10.444;2022-07-12T03:10:11;3.10;;;2.80;;
12024;SDS011;6073;53.230;10.444;2022-07-12T03:12:37;3.03;;;2.55;;
12024;SDS011;6073;53.230;10.444;2022-07-12T03:15:03;3.05;;;2.80;;
12024;SDS011;6073;53.230;10.444;2022-07-12T03:17:30;3.45;;;3.00;;
12024;SDS011;6073;53.230;10.444;2022-07-12T03:19:56;2.83;;;2.58;;
12024;SDS011;6073;53.230;10.444;2022-07-12T03:22:22;3.08;;;2.78;;
12024;SDS011;6073;53.230;10.444;2022-07-12T03:24:48;3.25;;;2.92;;
12024;SDS011;6073;53.230;10.444;2022-07-12T03:27:13;4.63;;;3.42;;
12024;SDS011;6073;53.230;10.444;2022-07-12T03:29:39;3.80;;;3.10;;
12024;SDS011;6073;53.230;10.444;2022-07-12T03:32:05;3.10;;;2.80;;
12024;SDS011;6073;53.230;10.444;2022-07-12T03:34:31;2.95;;;2.65;;
12024;SDS011;6073;53.230;10.444;2022-07-12T03:36:57;3.30;;;2.95;;
12024;SDS011;6073;53.230;10.444;2022-07-12T03:39:23;5.10;;;3.10;;
12024;SDS011;6073;53.230;10.444;2022-07-12T03:41:48;3.10;;;2.83;;
12024;SDS011;6073;53.230;10.444;2022-07-12T03:44:14;3.53;;;2.85;;
12024;SDS011;6073;53.230;10.444;2022-07-12T03:46:40;3.80;;;2.88;;
12024;SDS011;6073;53.230;10.444;2022-07-12T03:49:05;3.03;;;2.72;;
12024;SDS011;6073;53.230;10.444;2022-07-12T03:51:31;3.35;;;2.60;;
12024;SDS011;6073;53.230;10.444;2022-07-12T03:53:56;3.83;;;3.00;;
12024;SDS011;6073;53.230;10.444;2022-07-12T03:56:22;3.63;;;3.20;;
12024;SDS011;6073;53.230;10.444;2022-07-12T03:59:09;3.08;;;2.78;;
12024;SDS011;6073;53.230;10.444;2022-07-12T04:01:37;4.55;;;3.17;;
12024;SDS011;6073;53.230;10.444;2022-07-12T04:04:03;2.95;;;2.67;;
12024;SDS011;6073;53.230;10.444;2022-07-12T04:06:28;4.35;;;3.30;;
12024;SDS011;6073;53.230;10.444;2022-07-12T04:08:54;3.80;;;3.40;;
12024;SDS011;6073;53.230;10.444;2022-07-12T04:11:20;5.38;;;3.67;;
12024;SDS011;6073;53.230;10.444;2022-07-12T04:13:46;3.70;;;3.40;;
12024;SDS011;6073;53.230;10.444;2022-07-12T04:16:11;4.22;;;3.47;;
12024;SDS011;6073;53.230;10.444;2022-07-12T04:18:37;3.90;;;3.50;;
12024;SDS011;6073;53.230;10.444;2022-07-12T04:21:06;3.90;;;3.45;;
12024;SDS011;6073;53.230;10.444;2022-07-12T04:23:31;3.75;;;3.35;;
12024;SDS011;6073;53.230;10.444;2022-07-12T04:25:57;5.43;;;3.65;;
12024;SDS011;6073;53.230;10.444;2022-07-12T04:28:26;4.00;;;3.38;;
12024;SDS011;6073;53.230;10.444;2022-07-12T04:30:52;5.22;;;4.10;;
12024;SDS011;6073;53.230;10.444;2022-07-12T04:33:17;4.35;;;3.92;;
12024;SDS011;6073;53.230;10.444;2022-07-12T04:35:43;4.88;;;3.42;;
12024;SDS011;6073;53.230;10.444;2022-07-12T04:38:12;5.65;;;5.00;;
12024;SDS011;6073;53.230;10.444;2022-07-12T04:40:41;5.18;;;4.68;;
12024;SDS011;6073;53.230;10.444;2022-07-12T04:43:09;5.93;;;4.75;;
12024;SDS011;6073;53.230;10.444;2022-07-12T04:45:35;5.57;;;4.78;;
12024;SDS011;6073;53.230;10.444;2022-07-12T04:48:03;6.05;;;4.75;;
12024;SDS011;6073;53.230;10.444;2022-07-12T04:50:31;5.68;;;4.70;;
12024;SDS011;6073;53.230;10.444;2022-07-12T04:52:57;5.35;;;4.20;;
12024;SDS011;6073;53.230;10.444;2022-07-12T04:55:28;5.30;;;4.43;;
12024;SDS011;6073;53.230;10.444;2022-07-12T04:57:54;6.28;;;4.30;;
12024;SDS011;6073;53.230;10.444;2022-07-12T05:00:22;4.13;;;3.67;;
12024;SDS011;6073;53.230;10.444;2022-07-12T05:02:48;5.00;;;3.95;;
12024;SDS011;6073;53.230;10.444;2022-07-12T05:05:25;5.32;;;4.10;;
12024;SDS011;6073;53.230;10.444;2022-07-12T05:07:51;4.00;;;3.55;;
12024;SDS011;6073;53.230;10.444;2022-07-12T05:10:16;4.60;;;3.47;;
12024;SDS011;6073;53.230;10.444;2022-07-12T05:12:48;4.20;;;3.47;;
12024;SDS011;6073;53.230;10.444;2022-07-12T05:15:14;3.13;;;2.58;;
12024;SDS011;6073;53.230;10.444;2022-07-12T05:17:39;4.45;;;3.47;;
12024;SDS011;6073;53.230;10.444;2022-07-12T05:20:05;4.05;;;3.65;;
12024;SDS011;6073;53.230;10.444;2022-07-12T05:22:31;4.75;;;3.42;;
12024;SDS011;6073;53.230;10.444;2022-07-12T05:24:56;6.07;;;3.55;;
12024;SDS011;6073;53.230;10.444;2022-07-12T05:27:22;3.75;;;3.05;;
12024;SDS011;6073;53.230;10.444;2022-07-12T05:29:48;4.25;;;3.38;;
12024;SDS011;6073;53.230;10.444;2022-07-12T05:32:13;4.53;;;2.95;;
12024;SDS011;6073;53.230;10.444;2022-07-12T05:34:41;3.22;;;2.75;;
12024;SDS011;6073;53.230;10.444;2022-07-12T05:37:11;3.47;;;3.17;;
12024;SDS011;6073;53.230;10.444;2022-07-12T05:39:37;3.90;;;3.08;;
12024;SDS011;6073;53.230;10.444;2022-07-12T05:42:02;3.35;;;2.63;;
12024;SDS011;6073;53.230;10.444;2022-07-12T05:44:28;3.40;;;3.05;;
12024;SDS011;6073;53.230;10.444;2022-07-12T05:46:56;3.22;;;2.92;;
12024;SDS011;6073;53.230;10.444;2022-07-12T05:49:22;3.53;;;2.80;;
12024;SDS011;6073;53.230;10.444;2022-07-12T05:51:48;2.65;;;2.33;;
12024;SDS011;6073;53.230;10.444;2022-07-12T05:54:32;2.80;;;2.50;;
12024;SDS011;6073;53.230;10.444;2022-07-12T05:56:58;2.55;;;2.35;;
12024;SDS011;6073;53.230;10.444;2022-07-12T05:59:26;2.70;;;2.30;;
12024;SDS011;6073;53.230;10.444;2022-07-12T06:01:54;4.28;;;2.53;;
12024;SDS011;6073;53.230;10.444;2022-07-12T06:04:19;4.25;;;2.30;;
12024;SDS011;6073;53.230;10.444;2022-07-12T06:06:45;2.22;;;1.90;;
12024;SDS011;6073;53.230;10.444;2022-07-12T06:09:10;3.13;;;2.58;;
12024;SDS011;6073;53.230;10.444;2022-07-12T06:11:37;2.60;;;2.20;;
12024;SDS011;6073;53.230;10.444;2022-07-12T06:14:05;3.33;;;2.20;;
12024;SDS011;6073;53.230;10.444;2022-07-12T06:16:31;6.00;;;2.15;;
12024;SDS011;6073;53.230;10.444;2022-07-12T06:18:56;2.15;;;1.95;;
12024;SDS011;6073;53.230;10.444;2022-07-12T06:21:25;4.82;;;2.03;;
12024;SDS011;6073;53.230;10.444;2022-07-12T06:23:53;2.17;;;1.70;;
12024;SDS011;6073;53.230;10.444;2022-07-12T06:26:22;2.60;;;1.60;;
12024;SDS011;6073;53.230;10.444;2022-07-12T06:28:50;2.30;;;1.95;;
12024;SDS011;6073;53.230;10.444;2022-07-12T06:31:16;1.70;;;1.60;;
12024;SDS011;6073;53.230;10.444;2022-07-12T06:33:42;1.88;;;1.77;;
12024;SDS011;6073;53.230;10.444;2022-07-12T06:36:08;3.42;;;1.70;;
12024;SDS011;6073;53.230;10.444;2022-07-12T06:38:36;2.17;;;1.98;;
12024;SDS011;6073;53.230;10.444;2022-07-12T06:41:02;2.35;;;2.13;;
12024;SDS011;6073;53.230;10.444;2022-07-12T06:43:33;2.10;;;1.63;;
12024;SDS011;6073;53.230;10.444;2022-07-12T06:45:59;2.38;;;2.17;;
12024;SDS011;6073;53.230;10.444;2022-07-12T06:48:24;3.03;;;1.80;;
12024;SDS011;6073;53.230;10.444;2022-07-12T06:50:50;2.40;;;2.15;;
12024;SDS011;6073;53.230;10.444;2022-07-12T06:53:15;3.05;;;2.30;;
12024;SDS011;6073;53.230;10.444;2022-07-12T06:55:47;2.53;;;2.33;;
12024;SDS011;6073;53.230;10.444;2022-07-12T06:58:13;2.33;;;1.90;;
12024;SDS011;6073;53.230;10.444;2022-07-12T07:00:42;1.90;;;1.80;;
12024;SDS011;6073;53.230;10.444;2022-07-12T07:03:07;2.33;;;1.90;;
12024;SDS011;6073;53.230;10.444;2022-07-12T07:05:34;2.08;;;1.58;;
12024;SDS011;6073;53.230;10.444;2022-07-12T07:08:02;3.42;;;2.17;;
12024;SDS011;6073;53.230;10.444;2022-07-12T07:10:31;2.20;;;2.00;;
12024;SDS011;6073;53.230;10.444;2022-07-12T07:12:58;2.58;;;1.80;;
12024;SDS011;6073;53.230;10.444;2022-07-12T07:15:25;2.70;;;2.28;;
12024;SDS011;6073;53.230;10.444;2022-07-12T07:17:56;1.73;;;1.63;;
12024;SDS011;6073;53.230;10.444;2022-07-12T07:20:22;1.83;;;1.70;;
12024;SDS011;6073;53.230;10.444;2022-07-12T07:22:47;2.42;;;1.80;;
12024;SDS011;6073;53.230;10.444;2022-07-12T07:25:13;1.88;;;1.77;;
12024;SDS011;6073;53.230;10.444;2022-07-12T07:27:38;3.33;;;1.90;;
12024;SDS011;6073;53.230;10.444;2022-07-12T07:30:04;3.33;;;2.17;;
12024;SDS011;6073;53.230;10.444;2022-07-12T07:32:49;3.47;;;1.85;;
12024;SDS011;6073;53.230;10.444;2022-07-12T07:35:14;1.70;;;1.58;;
12024;SDS011;6073;53.230;10.444;2022-07-12T07:37:43;2.42;;;1.85;;
12024;SDS011;6073;53.230;10.444;2022-07-12T07:40:09;2.63;;;1.65;;
12024;SDS011;6073;53.230;10.444;2022-07-12T07:42:34;2.22;;;1.80;;
12024;SDS011;6073;53.230;10.444;2022-07-12T07:45:00;1.92;;;1.60;;
12024;SDS011;6073;53.230;10.444;2022-07-12T07:47:27;2.40;;;1.60;;
12024;SDS011;6073;53.230;10.444;2022-07-12T07:49:55;2.13;;;1.85;;
12024;SDS011;6073;53.230;10.444;2022-07-12T07:52:21;1.75;;;1.65;;
12024;SDS011;6073;53.230;10.444;2022-07-12T07:54:46;2.30;;;1.58;;
12024;SDS011;6073;53.230;10.444;2022-07-12T07:57:15;1.60;;;1.50;;
12024;SDS011;6073;53.230;10.444;2022-07-12T07:59:40;2.63;;;1.90;;
12024;SDS011;6073;53.230;10.444;2022-07-12T08:02:10;3.30;;;1.77;;
12024;SDS011;6073;53.230;10.444;2022-07-12T08:04:37;2.35;;;1.90;;
12024;SDS011;6073;53.230;10.444;2022-07-12T08:07:05;2.30;;;2.10;;
12024;SDS011;6073;53.230;10.444;2022-07-12T08:09:31;2.08;;;1.80;;
12024;SDS011;6073;53.230;10.444;2022-07-12T08:12:00;2.30;;;2.10;;
12024;SDS011;6073;53.230;10.444;2022-07-12T08:14:26;2.30;;;2.10;;
12024;SDS011;6073;53.230;10.444;2022-07-12T08:16:54;3.00;;;2.33;;
12024;SDS011;6073;53.230;10.444;2022-07-12T08:19:20;2.25;;;1.98;;
12024;SDS011;6073;53.230;10.444;2022-07-12T08:21:46;2.10;;;1.90;;
12024;SDS011;6073;53.230;10.444;2022-07-12T08:24:17;1.83;;;1.70;;
12024;SDS011;6073;53.230;10.444;2022-07-12T08:26:42;1.95;;;1.80;;
12024;SDS011;6073;53.230;10.444;2022-07-12T08:29:08;2.75;;;2.00;;
12024;SDS011;6073;53.230;10.444;2022-07-12T08:31:33;2.67;;;2.45;;
12024;SDS011;6073;53.230;10.444;2022-07-12T08:34:02;2.15;;;1.95;;
12024;SDS011;6073;53.230;10.444;2022-07-12T08:36:27;2.22;;;2.08;;
12024;SDS011;6073;53.230;10.444;2022-07-12T08:38:53;2.38;;;2.17;;
12024;SDS011;6073;53.230;10.444;2022-07-12T08:41:18;2.38;;;2.17;;
12024;SDS011;6073;53.230;10.444;2022-07-12T08:43:44;1.80;;;1.70;;
12024;SDS011;6073;53.230;10.444;2022-07-12T08:46:11;2.03;;;1.85;;
12024;SDS011;6073;53.230;10.444;2022-07-12T08:48:38;1.90;;;1.73;;
12024;SDS011;6073;53.230;10.444;2022-07-12T08:51:05;2.50;;;1.98;;
12024;SDS011;6073;53.230;10.444;2022-07-12T08:53:32;2.03;;;1.92;;
12024;SDS011;6073;53.230;10.444;2022-07-12T08:56:02;1.67;;;1.58;;
12024;SDS011;6073;53.230;10.444;2022-07-12T08:58:28;2.15;;;1.63;;
12024;SDS011;6073;53.230;10.444;2022-07-12T09:00:54;2.22;;;2.00;;
12024;SDS011;6073;53.230;10.444;2022-07-12T09:03:22;2.30;;;2.10;;
12024;SDS011;6073;53.230;10.444;2022-07-12T09:05:49;2.10;;;1.83;;
12024;SDS011;6073;53.230;10.444;2022-07-12T09:08:27;2.65;;;1.52;;
12024;SDS011;6073;53.230;10.444;2022-07-12T09:11:00;3.00;;;1.90;;
12024;SDS011;6073;53.230;10.444;2022-07-12T09:13:48;2.35;;;1.88;;
12024;SDS011;6073;53.230;10.444;2022-07-12T09:16:16;1.80;;;1.70;;
12024;SDS011;6073;53.230;10.444;2022-07-12T09:18:47;2.15;;;2.00;;
12024;SDS011;6073;53.230;10.444;2022-07-12T09:21:26;2.58;;;2.05;;
12024;SDS011;6073;53.230;10.444;2022-07-12T09:24:01;2.15;;;2.00;;
12024;SDS011;6073;53.230;10.444;2022-07-12T09:26:45;3.58;;;1.95;;
12024;SDS011;6073;53.230;10.444;2022-07-12T09:29:12;2.03;;;1.90;;
12024;SDS011;6073;53.230;10.444;2022-07-12T09:31:39;2.45;;;2.00;;
12024;SDS011;6073;53.230;10.444;2022-07-12T09:34:41;1.60;;;1.50;;
12024;SDS011;6073;53.230;10.444;2022-07-12T09:37:25;2.25;;;1.90;;
12024;SDS011;6073;53.230;10.444;2022-07-12T09:39:52;1.98;;;1.88;;
12024;SDS011;6073;53.230;10.444;2022-07-12T09:42:18;2.45;;;1.90;;
12024;SDS011;6073;53.230;10.444;2022-07-12T09:44:45;3.05;;;2.20;;
12024;SDS011;6073;53.230;10.444;2022-07-12T09:47:22;2.33;;;1.95;;
12024;SDS011;6073;53.230;10.444;2022-07-12T09:49:53;2.80;;;2.15;;
12024;SDS011;6073;53.230;10.444;2022-07-12T09:52:23;2.42;;;2.22;;
12024;SDS011;6073;53.230;10.444;2022-07-12T09:54:55;2.92;;;2.22;;
12024;SDS011;6073;53.230;10.444;2022-07-12T09:57:31;3.55;;;1.90;;
12024;SDS011;6073;53.230;10.444;2022-07-12T10:00:00;2.05;;;1.90;;
12024;SDS011;6073;53.230;10.444;2022-07-12T10:02:32;2.35;;;2.15;;
12024;SDS011;6073;53.230;10.444;2022-07-12T10:04:59;2.35;;;1.80;;
12024;SDS011;6073;53.230;10.444;2022-07-12T10:07:50;2.28;;;2.08;;
12024;SDS011;6073;53.230;10.444;2022-07-12T10:10:19;2.22;;;1.92;;
12024;SDS011;6073;53.230;10.444;2022-07-12T10:12:51;2.47;;;2.00;;
12024;SDS011;6073;53.230;10.444;2022-07-12T10:15:18;2.40;;;2.13;;
12024;SDS011;6073;53.230;10.444;2022-07-12T10:17:53;2.30;;;1.98;;
12024;SDS011;6073;53.230;10.444;2022-07-12T10:20:31;2.20;;;1.80;;
12024;SDS011;6073;53.230;10.444;2022-07-12T10:25:44;2.10;;;1.98;;
12024;SDS011;6073;53.230;10.444;2022-07-12T10:28:15;3.25;;;2.15;;
12024;SDS011;6073;53.230;10.444;2022-07-12T10:30:42;1.88;;;1.73;;
12024;SDS011;6073;53.230;10.444;2022-07-12T10:33:16;2.30;;;1.92;;
12024;SDS011;6073;53.230;10.444;2022-07-12T10:36:00;2.10;;;1.95;;
12024;SDS011;6073;53.230;10.444;2022-07-12T10:38:26;2.25;;;2.05;;
12024;SDS011;6073;53.230;10.444;2022-07-12T10:40:53;2.22;;;2.03;;
12024;SDS011;6073;53.230;10.444;2022-07-12T10:43:19;2.33;;;2.13;;
12024;SDS011;6073;53.230;10.444;2022-07-12T10:46:13;2.20;;;2.00;;
12024;SDS011;6073;53.230;10.444;2022-07-12T10:48:43;1.90;;;1.80;;
12024;SDS011;6073;53.230;10.444;2022-07-12T10:51:16;2.88;;;2.00;;
12024;SDS011;6073;53.230;10.444;2022-07-12T10:53:45;2.00;;;1.90;;
12024;SDS011;6073;53.230;10.444;2022-07-12T10:56:16;2.05;;;1.88;;
12024;SDS011;6073;53.230;10.444;2022-07-12T11:01:28;2.10;;;1.80;;
12024;SDS011;6073;53.230;10.444;2022-07-12T11:06:33;1.90;;;1.80;;
12024;SDS011;6073;53.230;10.444;2022-07-12T11:09:04;1.95;;;1.85;;
12024;SDS011;6073;53.230;10.444;2022-07-12T11:11:33;3.60;;;1.88;;
12024;SDS011;6073;53.230;10.444;2022-07-12T11:14:00;3.00;;;2.10;;
12024;SDS011;6073;53.230;10.444;2022-07-12T11:16:29;2.33;;;2.13;;
12024;SDS011;6073;53.230;10.444;2022-07-12T11:18:55;2.13;;;1.92;;
12024;SDS011;6073;53.230;10.444;2022-07-12T11:21:21;2.25;;;1.90;;
12024;SDS011;6073;53.230;10.444;2022-07-12T11:23:48;2.20;;;1.83;;
12024;SDS011;6073;53.230;10.444;2022-07-12T11:26:15;2.92;;;2.03;;
12024;SDS011;6073;53.230;10.444;2022-07-12T11:28:41;1.92;;;1.83;;
12024;SDS011;6073;53.230;10.444;2022-07-12T11:31:11;2.80;;;1.80;;
12024;SDS011;6073;53.230;10.444;2022-07-12T11:33:40;2.22;;;1.70;;
12024;SDS011;6073;53.230;10.444;2022-07-12T11:36:10;1.65;;;1.55;;
12024;SDS011;6073;53.230;10.444;2022-07-12T11:38:38;1.60;;;1.50;;
12024;SDS011;6073;53.230;10.444;2022-07-12T11:41:06;1.70;;;1.60;;
12024;SDS011;6073;53.230;10.444;2022-07-12T11:43:33;1.77;;;1.58;;
12024;SDS011;6073;53.230;10.444;2022-07-12T11:46:00;1.83;;;1.60;;
12024;SDS011;6073;53.230;10.444;2022-07-12T11:48:27;1.50;;;1.40;;
12024;SDS011;6073;53.230;10.444;2022-07-12T11:50:54;1.73;;;1.55;;
12024;SDS011;6073;53.230;10.444;2022-07-12T11:53:23;1.73;;;1.63;;
12024;SDS011;6073;53.230;10.444;2022-07-12T11:55:51;1.90;;;1.80;;
12024;SDS011;6073;53.230;10.444;2022-07-12T11:58:21;2.30;;;1.90;;
12024;SDS011;6073;53.230;10.444;2022-07-12T12:00:47;1.98;;;1.50;;
12024;SDS011;6073;53.230;10.444;2022-07-12T12:03:14;1.70;;;1.60;;
12024;SDS011;6073;53.230;10.444;2022-07-12T12:05:45;1.60;;;1.50;;
12024;SDS011;6073;53.230;10.444;2022-07-12T12:08:12;2.05;;;1.70;;
12024;SDS011;6073;53.230;10.444;2022-07-12T12:10:52;3.45;;;1.70;;
12024;SDS011;6073;53.230;10.444;2022-07-12T12:13:23;1.80;;;1.70;;
12024;SDS011;6073;53.230;10.444;2022-07-12T12:15:51;1.73;;;1.60;;
12024;SDS011;6073;53.230;10.444;2022-07-12T12:18:34;2.08;;;1.80;;
12024;SDS011;6073;53.230;10.444;2022-07-12T12:21:05;2.00;;;1.80;;
12024;SDS011;6073;53.230;10.444;2022-07-12T12:23:32;2.90;;;1.73;;
12024;SDS011;6073;53.230;10.444;2022-07-12T12:26:12;2.75;;;1.95;;
12024;SDS011;6073;53.230;10.444;2022-07-12T12:28:49;2.20;;;1.98;;
12024;SDS011;6073;53.230;10.444;2022-07-12T12:31:17;2.33;;;1.55;;
12024;SDS011;6073;53.230;10.444;2022-07-12T12:33:50;2.20;;;2.00;;
12024;SDS011;6073;53.230;10.444;2022-07-12T12:36:21;1.73;;;1.63;;
12024;SDS011;6073;53.230;10.444;2022-07-12T12:38:48;2.40;;;2.00;;
12024;SDS011;6073;53.230;10.444;2022-07-12T12:41:15;4.55;;;2.13;;
12024;SDS011;6073;53.230;10.444;2022-07-12T12:43:42;2.92;;;1.60;;
12024;SDS011;6073;53.230;10.444;2022-07-12T12:46:08;2.65;;;1.77;;
12024;SDS011;6073;53.230;10.444;2022-07-12T12:48:34;1.85;;;1.70;;
12024;SDS011;6073;53.230;10.444;2022-07-12T12:51:07;2.15;;;1.95;;
12024;SDS011;6073;53.230;10.444;2022-07-12T12:53:37;2.30;;;2.10;;
12024;SDS011;6073;53.230;10.444;2022-07-12T12:56:08;3.15;;;1.95;;
12024;SDS011;6073;53.230;10.444;2022-07-12T12:58:36;2.03;;;1.92;;
12024;SDS011;6073;53.230;10.444;2022-07-12T13:01:02;2.40;;;1.90;;
12024;SDS011;6073;53.230;10.444;2022-07-12T13:03:29;2.40;;;2.20;;
12024;SDS011;6073;53.230;10.444;2022-07-12T13:05:55;2.10;;;1.90;;
12024;SDS011;6073;53.230;10.444;2022-07-12T13:08:21;2.55;;;2.03;;
12024;SDS011;6073;53.230;10.444;2022-07-12T13:10:47;2.53;;;2.00;;
12024;SDS011;6073;53.230;10.444;2022-07-12T13:13:32;3.22;;;2.40;;
12024;SDS011;6073;53.230;10.444;2022-07-12T13:15:58;2.45;;;2.03;;
12024;SDS011;6073;53.230;10.444;2022-07-12T13:18:24;2.10;;;2.00;;
12024;SDS011;6073;53.230;10.444;2022-07-12T13:20:49;2.72;;;2.53;;
12024;SDS011;6073;53.230;10.444;2022-07-12T13:23:15;2.55;;;2.35;;
12024;SDS011;6073;53.230;10.444;2022-07-12T13:25:40;2.50;;;2.30;;
12024;SDS011;6073;53.230;10.444;2022-07-12T13:28:06;2.55;;;2.35;;
12024;SDS011;6073;53.230;10.444;2022-07-12T13:30:31;2.53;;;2.20;;
12024;SDS011;6073;53.230;10.444;2022-07-12T13:33:00;2.88;;;2.20;;
12024;SDS011;6073;53.230;10.444;2022-07-12T13:35:25;2.65;;;2.25;;
12024;SDS011;6073;53.230;10.444;2022-07-12T13:37:54;2.10;;;1.98;;
12024;SDS011;6073;53.230;10.444;2022-07-12T13:40:20;2.60;;;2.40;;
12024;SDS011;6073;53.230;10.444;2022-07-12T13:42:47;2.92;;;2.35;;
12024;SDS011;6073;53.230;10.444;2022-07-12T13:45:16;2.70;;;2.00;;
12024;SDS011;6073;53.230;10.444;2022-07-12T13:47:43;2.88;;;2.58;;
12024;SDS011;6073;53.230;10.444;2022-07-12T13:50:10;2.60;;;2.40;;
12024;SDS011;6073;53.230;10.444;2022-07-12T13:52:37;2.55;;;2.35;;
12024;SDS011;6073;53.230;10.444;2022-07-12T13:55:04;2.22;;;2.03;;
12024;SDS011;6073;53.230;10.444;2022-07-12T13:57:30;2.50;;;2.30;;
12024;SDS011;6073;53.230;10.444;2022-07-12T13:59:56;1.75;;;1.65;;
12024;SDS011;6073;53.230;10.444;2022-07-12T14:02:23;5.68;;;2.40;;
12024;SDS011;6073;53.230;10.444;2022-07-12T14:04:49;2.50;;;2.30;;
12024;SDS011;6073;53.230;10.444;2022-07-12T14:07:15;2.38;;;2.17;;
12024;SDS011;6073;53.230;10.444;2022-07-12T14:09:40;2.55;;;2.35;;
12024;SDS011;6073;53.230;10.444;2022-07-12T14:12:06;1.70;;;1.60;;
12024;SDS011;6073;53.230;10.444;2022-07-12T14:14:33;1.80;;;1.40;;
12024;SDS011;6073;53.230;10.444;2022-07-12T14:17:17;2.40;;;1.52;;
12024;SDS011;6073;53.230;10.444;2022-07-12T14:19:43;1.30;;;1.20;;
12024;SDS011;6073;53.230;10.444;2022-07-12T14:22:08;1.27;;;1.20;;
12024;SDS011;6073;53.230;10.444;2022-07-12T14:24:34;1.35;;;1.20;;
12024;SDS011;6073;53.230;10.444;2022-07-12T14:27:00;3.45;;;1.00;;
12024;SDS011;6073;53.230;10.444;2022-07-12T14:29:26;1.75;;;1.02;;
12024;SDS011;6073;53.230;10.444;2022-07-12T14:31:54;1.20;;;1.10;;
12024;SDS011;6073;53.230;10.444;2022-07-12T14:34:21;1.38;;;1.27;;
12024;SDS011;6073;53.230;10.444;2022-07-12T14:36:47;1.40;;;1.30;;
12024;SDS011;6073;53.230;10.444;2022-07-12T14:39:14;1.55;;;1.13;;
12024;SDS011;6073;53.230;10.444;2022-07-12T14:41:40;1.23;;;1.10;;
12024;SDS011;6073;53.230;10.444;2022-07-12T14:44:07;1.30;;;1.20;;
12024;SDS011;6073;53.230;10.444;2022-07-12T14:46:33;1.45;;;1.35;;
12024;SDS011;6073;53.230;10.444;2022-07-12T14:48:59;1.85;;;1.30;;
12024;SDS011;6073;53.230;10.444;2022-07-12T14:51:24;2.55;;;1.30;;
12024;SDS011;6073;53.230;10.444;2022-07-12T14:53:51;2.83;;;1.40;;
12024;SDS011;6073;53.230;10.444;2022-07-12T14:56:20;1.55;;;1.45;;
12024;SDS011;6073;53.230;10.444;2022-07-12T14:58:45;1.60;;;1.50;;
12024;SDS011;6073;53.230;10.444;2022-07-12T15:01:11;1.60;;;1.20;;